createdAt,value
2017-05-04T00:01:55.353Z,49.60
2017-05-04T00:04:23.736Z,49.60
2017-05-04T00:06:53.177Z,49.70
2017-05-04T00:09:21.931Z,49.60
2017-05-04T00:11:51.116Z,49.70
2017-05-04T00:14:19.426Z,49.50
2017-05-04T00:16:47.811Z,49.60
2017-05-04T00:19:16.196Z,49.70
2017-05-04T00:21:44.536Z,49.80
2017-05-04T00:24:13.644Z,49.40
2017-05-04T00:26:42.746Z,50.00
2017-05-04T00:29:11.817Z,50.00
2017-05-04T00:31:40.150Z,50.10
2017-05-04T00:34:08.574Z,50.10
2017-05-04T00:36:36.950Z,50.10
2017-05-04T00:39:05.281Z,50.20
2017-05-04T00:41:33.618Z,50.10
2017-05-04T00:44:02.690Z,50.20
2017-05-04T00:46:31.024Z,50.30
2017-05-04T00:48:59.412Z,50.30
2017-05-04T00:51:29.494Z,50.50
2017-05-04T00:53:58.564Z,50.70
2017-05-04T00:56:27.048Z,51.00
2017-05-04T00:58:55.425Z,51.30
2017-05-04T01:01:23.797Z,51.60
2017-05-04T01:03:53.043Z,51.60
2017-05-04T01:06:21.383Z,51.70
2017-05-04T01:08:49.765Z,51.70
2017-05-04T01:11:18.111Z,51.70
2017-05-04T01:13:46.514Z,51.90
2017-05-04T01:16:14.845Z,52.00
2017-05-04T01:18:43.242Z,52.00
2017-05-04T01:21:12.411Z,51.90
2017-05-04T01:23:40.808Z,52.10
2017-05-04T01:26:09.228Z,52.30
2017-05-04T01:28:38.234Z,52.20
2017-05-04T01:31:07.677Z,52.10
2017-05-04T01:33:36.003Z,52.70
2017-05-04T01:36:04.383Z,53.30
2017-05-04T01:38:32.743Z,53.90
2017-05-04T01:41:01.749Z,53.90
2017-05-04T01:43:30.076Z,54.30
2017-05-04T01:45:58.780Z,54.50
2017-05-04T01:48:27.141Z,54.80
2017-05-04T01:50:55.498Z,54.50
2017-05-04T01:53:23.833Z,54.80
2017-05-04T01:55:52.171Z,54.90
2017-05-04T01:58:20.505Z,55.30
2017-05-04T02:00:48.838Z,55.00
2017-05-04T02:03:17.243Z,54.70
2017-05-04T02:05:45.583Z,54.30
2017-05-04T02:08:14.615Z,54.20
2017-05-04T02:10:42.968Z,54.00
2017-05-04T02:13:11.280Z,54.20
2017-05-04T02:15:39.649Z,54.10
2017-05-04T02:18:07.997Z,53.50
2017-05-04T02:20:36.325Z,53.70
2017-05-04T02:23:04.705Z,53.40
2017-05-04T02:25:33.470Z,52.90
2017-05-04T02:28:01.811Z,52.80
2017-05-04T02:30:30.728Z,53.20
2017-05-04T02:32:59.738Z,52.80
2017-05-04T02:35:28.088Z,52.70
2017-05-04T02:37:56.438Z,52.70
2017-05-04T02:40:24.848Z,53.30
2017-05-04T02:42:53.201Z,52.70
2017-05-04T02:45:21.566Z,53.10
2017-05-04T02:47:49.998Z,52.90
2017-05-04T02:50:19.197Z,53.40
2017-05-04T02:52:47.605Z,54.00
2017-05-04T02:55:16.309Z,54.40
2017-05-04T02:57:45.487Z,54.20
2017-05-04T03:00:13.958Z,54.50
2017-05-04T03:02:42.353Z,54.30
2017-05-04T03:05:10.723Z,54.80
2017-05-04T03:07:40.098Z,54.70
2017-05-04T03:10:08.472Z,54.50
2017-05-04T03:12:49.006Z,54.90
2017-05-04T03:15:17.523Z,55.50
2017-05-04T03:17:46.782Z,55.50
2017-05-04T03:20:15.217Z,55.70
2017-05-04T03:22:43.604Z,56.80
2017-05-04T03:25:11.922Z,56.80
2017-05-04T03:27:40.331Z,58.10
2017-05-04T03:30:08.680Z,58.60
2017-05-04T03:32:37.831Z,60.10
2017-05-04T03:35:06.587Z,60.80
2017-05-04T03:37:34.956Z,61.60
2017-05-04T03:40:03.301Z,62.30
2017-05-04T03:42:32.390Z,62.50
2017-05-04T03:45:01.583Z,63.30
2017-05-04T03:47:29.947Z,64.10
2017-05-04T03:49:58.313Z,64.30
2017-05-04T03:52:26.700Z,65.30
2017-05-04T03:54:55.644Z,65.70
2017-05-04T03:57:24.186Z,67.40
2017-05-04T03:59:52.552Z,67.80
2017-05-04T04:02:20.929Z,67.80
2017-05-04T04:04:49.309Z,67.70
2017-05-04T04:07:18.496Z,68.20
2017-05-04T04:09:46.921Z,69.20
2017-05-04T04:12:16.026Z,68.10
2017-05-04T04:14:44.488Z,69.60
2017-05-04T04:17:12.912Z,69.20
2017-05-04T04:19:41.268Z,69.30
2017-05-04T04:22:15.258Z,68.10
2017-05-04T04:24:44.373Z,67.30
2017-05-04T04:27:13.461Z,67.10
2017-05-04T04:29:41.841Z,67.40
2017-05-04T04:32:10.936Z,69.20
2017-05-04T04:34:39.313Z,68.60
2017-05-04T04:37:08.411Z,68.00
2017-05-04T04:39:36.812Z,69.50
2017-05-04T04:42:05.174Z,68.40
2017-05-04T04:44:34.329Z,68.80
2017-05-04T04:47:02.637Z,68.90
2017-05-04T04:49:31.067Z,68.40
2017-05-04T04:51:59.366Z,68.00
2017-05-04T04:54:27.767Z,67.80
2017-05-04T04:56:56.246Z,67.80
2017-05-04T04:59:24.772Z,68.10
2017-05-04T05:01:53.216Z,68.20
2017-05-04T05:04:21.589Z,68.50
2017-05-04T05:06:50.775Z,68.20
2017-05-04T05:20:53.262Z,69.10
2017-05-04T05:23:22.345Z,68.40
2017-05-04T05:25:51.687Z,67.80
2017-05-04T05:28:25.202Z,67.40
2017-05-04T05:30:53.669Z,68.30
2017-05-04T05:33:22.455Z,69.00
2017-05-04T05:35:51.316Z,69.50
2017-05-04T05:38:20.795Z,71.20
2017-05-04T05:40:49.276Z,69.80
2017-05-04T05:43:18.500Z,70.50
2017-05-04T05:45:46.969Z,70.40
2017-05-04T05:48:16.336Z,71.50
2017-05-04T05:50:45.332Z,71.10
2017-05-04T05:53:17.391Z,70.20
2017-05-04T05:55:45.943Z,70.00
2017-05-04T05:58:14.431Z,70.60
2017-05-04T06:00:43.485Z,71.20
2017-05-04T06:03:12.644Z,70.80
2017-05-04T06:05:46.948Z,71.50
2017-05-04T06:08:17.362Z,72.40
2017-05-04T06:10:45.943Z,71.80
2017-05-04T06:13:15.386Z,71.60
2017-05-04T06:15:44.548Z,71.30
2017-05-04T06:18:15.118Z,71.70
2017-05-04T06:20:46.157Z,71.90
2017-05-04T06:23:41.521Z,72.70
2017-05-04T06:26:13.636Z,72.60
2017-05-04T06:28:46.220Z,72.40
2017-05-04T06:31:22.215Z,73.40
2017-05-04T06:37:00.049Z,74.60
2017-05-04T06:39:29.435Z,73.80
2017-05-04T06:42:00.479Z,73.30
2017-05-04T06:47:37.540Z,73.80
2017-05-04T06:50:17.944Z,73.90
2017-05-04T06:52:49.995Z,73.80
2017-05-04T06:55:25.092Z,74.50
2017-05-04T06:58:02.176Z,73.90
2017-05-04T07:00:31.327Z,74.90
2017-05-04T07:02:59.676Z,74.00
2017-05-04T07:05:28.753Z,74.70
2017-05-04T07:07:57.171Z,74.70
2017-05-04T07:10:25.578Z,74.90
2017-05-04T07:12:55.229Z,74.30
2017-05-04T07:15:24.409Z,74.50
2017-05-04T07:17:52.993Z,74.70
2017-05-04T07:20:21.631Z,75.80
2017-05-04T07:22:50.911Z,75.80
2017-05-04T07:25:21.559Z,75.40
2017-05-04T07:28:00.058Z,76.00
2017-05-04T07:30:29.275Z,76.00
2017-05-04T07:33:01.732Z,76.80
2017-05-04T07:35:31.075Z,76.50
2017-05-04T07:37:59.536Z,76.00
2017-05-04T07:40:31.700Z,77.40
2017-05-04T07:43:00.478Z,76.50
2017-05-04T07:45:29.044Z,76.00
2017-05-04T07:48:00.473Z,77.10
2017-05-04T07:50:29.074Z,76.60
2017-05-04T07:52:58.213Z,78.00
2017-05-04T07:55:26.616Z,77.20
2017-05-04T07:57:55.044Z,78.10
2017-05-04T08:00:24.210Z,77.30
2017-05-04T08:03:09.160Z,77.30
2017-05-04T08:05:39.327Z,77.60
2017-05-04T08:08:07.771Z,77.70
2017-05-04T08:10:40.396Z,77.90
2017-05-04T08:13:08.807Z,77.90
2017-05-04T08:15:37.330Z,78.10
2017-05-04T08:18:06.844Z,78.90
2017-05-04T08:20:36.600Z,80.00
2017-05-04T08:23:06.110Z,78.00
2017-05-04T08:25:35.432Z,79.20
2017-05-04T08:28:05.011Z,80.00
2017-05-04T08:30:34.438Z,78.50
2017-05-04T08:33:02.949Z,78.50
2017-05-04T08:35:33.334Z,79.30
2017-05-04T08:38:09.148Z,78.60
2017-05-04T08:40:40.223Z,78.80
2017-05-04T08:43:08.654Z,77.80
2017-05-04T08:45:38.674Z,78.70
2017-05-04T08:48:09.905Z,78.10
2017-05-04T08:50:39.821Z,78.50
2017-05-04T08:53:09.330Z,76.90
2017-05-04T08:55:40.701Z,76.90
2017-05-04T08:58:09.903Z,77.40
2017-05-04T09:00:38.920Z,76.10
2017-05-04T09:03:07.350Z,76.60
2017-05-04T09:05:36.622Z,75.60
2017-05-04T09:08:07.116Z,77.10
2017-05-04T09:10:38.521Z,77.10
2017-05-04T09:13:07.047Z,76.70
2017-05-04T09:22:27.783Z,76.90
2017-05-04T09:36:59.627Z,76.20
2017-05-04T09:39:28.815Z,75.70
2017-05-04T09:41:58.083Z,75.90
2017-05-04T09:44:26.871Z,75.80
2017-05-04T09:46:56.206Z,74.10
2017-05-04T09:49:24.684Z,74.70
2017-05-04T09:51:58.173Z,75.00
2017-05-04T09:54:26.638Z,75.10
2017-05-04T09:56:55.936Z,74.80
2017-05-04T09:59:25.047Z,76.40
2017-05-04T10:01:55.004Z,73.80
2017-05-04T10:04:23.462Z,74.00
2017-05-04T10:06:53.253Z,74.10
2017-05-04T10:09:22.193Z,73.90
2017-05-04T10:11:54.432Z,75.00
2017-05-04T10:14:23.718Z,74.20
2017-05-04T10:16:56.095Z,74.00
2017-05-04T10:19:25.919Z,75.00
2017-05-04T10:21:54.403Z,74.90
2017-05-04T10:24:22.845Z,75.30
2017-05-04T10:26:52.148Z,75.70
2017-05-04T10:29:20.623Z,77.40
2017-05-04T10:31:49.784Z,76.30
2017-05-04T10:34:18.181Z,76.00
2017-05-04T10:36:46.542Z,76.20
2017-05-04T10:39:15.067Z,77.00
2017-05-04T10:41:44.348Z,77.60
2017-05-04T10:44:13.693Z,78.10
2017-05-04T10:46:42.155Z,77.90
2017-05-04T10:49:19.005Z,77.10
2017-05-04T10:51:57.262Z,77.50
2017-05-04T10:54:29.727Z,77.80
2017-05-04T10:59:36.128Z,78.10
2017-05-04T11:02:19.272Z,78.00
2017-05-04T11:04:57.355Z,78.10
2017-05-04T11:07:26.850Z,78.50
2017-05-04T11:09:58.186Z,78.50
2017-05-04T11:12:27.963Z,78.10
2017-05-04T11:14:56.350Z,78.70
2017-05-04T11:17:25.798Z,78.90
2017-05-04T11:19:54.334Z,79.10
2017-05-04T11:22:22.790Z,79.00
2017-05-04T11:24:51.232Z,78.30
2017-05-04T11:27:19.606Z,78.80
2017-05-04T11:29:48.830Z,79.20
2017-05-04T11:32:17.350Z,79.30
2017-05-04T11:34:45.837Z,80.20
2017-05-04T11:37:15.584Z,78.60
2017-05-04T11:39:45.371Z,80.10
2017-05-04T11:42:14.866Z,79.70
2017-05-04T11:44:44.074Z,79.70
2017-05-04T11:47:12.654Z,79.40
2017-05-04T11:49:43.388Z,79.80
2017-05-04T11:52:14.216Z,79.00
2017-05-04T11:54:57.437Z,79.40
2017-05-04T11:58:13.731Z,79.20
2017-05-04T12:00:42.326Z,79.10
2017-05-04T12:03:13.495Z,79.20
2017-05-04T12:05:43.791Z,79.60
2017-05-04T12:08:12.208Z,78.50
2017-05-04T12:13:40.300Z,79.00
2017-05-04T12:16:09.434Z,79.30
2017-05-04T12:18:38.024Z,78.90
2017-05-04T12:21:06.500Z,79.70
2017-05-04T12:23:34.881Z,79.10
2017-05-04T12:26:04.313Z,78.90
2017-05-04T12:28:32.818Z,78.20
2017-05-04T12:31:01.269Z,78.20
2017-05-04T12:33:30.707Z,76.50
2017-05-04T12:36:03.391Z,77.50
2017-05-04T12:38:31.789Z,77.00
2017-05-04T12:41:00.235Z,77.40
2017-05-04T12:43:29.529Z,76.30
2017-05-04T12:46:07.517Z,76.50
2017-05-04T12:48:36.851Z,76.10
2017-05-04T12:51:07.250Z,76.40
2017-05-04T12:53:35.716Z,76.40
2017-05-04T12:56:04.152Z,76.30
2017-05-04T12:58:32.507Z,76.70
2017-05-04T13:01:35.089Z,75.20
2017-05-04T13:04:04.428Z,76.00
2017-05-04T13:06:32.914Z,75.50
2017-05-04T13:09:02.174Z,75.50
2017-05-04T13:11:31.670Z,75.80
2017-05-04T13:14:03.583Z,75.50
2017-05-04T13:16:33.091Z,76.40
2017-05-04T13:19:06.262Z,75.10
2017-05-04T13:21:59.446Z,74.80
2017-05-04T13:24:27.910Z,75.90
2017-05-04T13:26:58.147Z,75.50
2017-05-04T13:29:28.132Z,75.70
2017-05-04T13:31:57.386Z,75.90
2017-05-04T13:34:25.907Z,74.40
2017-05-04T13:36:54.485Z,74.30
2017-05-04T13:39:24.077Z,74.60
2017-05-04T13:41:53.849Z,74.90
2017-05-04T13:44:22.316Z,74.80
2017-05-04T13:46:52.589Z,75.00
2017-05-04T13:49:22.911Z,75.00
2017-05-04T13:51:54.880Z,75.10
2017-05-04T13:54:24.590Z,75.20
2017-05-04T13:56:59.436Z,75.70
2017-05-04T14:02:11.661Z,76.20
2017-05-04T14:04:45.669Z,76.10
2017-05-04T14:10:06.658Z,76.70
2017-05-04T14:12:42.628Z,76.70
2017-05-04T14:15:11.360Z,76.60
2017-05-04T14:17:40.607Z,76.60
2017-05-04T14:25:32.358Z,77.30
2017-05-04T14:28:03.742Z,77.00
2017-05-04T14:33:52.495Z,76.60
2017-05-04T14:36:22.565Z,77.20
2017-05-04T14:38:52.496Z,77.50
2017-05-04T14:41:20.913Z,76.50
2017-05-04T14:43:52.027Z,76.80
2017-05-04T14:46:25.546Z,76.10
2017-05-04T14:48:55.319Z,76.70
2017-05-04T14:51:25.757Z,76.10
2017-05-04T14:53:54.315Z,75.70
2017-05-04T14:56:23.605Z,75.90
2017-05-04T14:58:52.395Z,75.90
2017-05-04T15:01:20.817Z,75.80
2017-05-04T15:03:49.793Z,75.30
2017-05-04T15:06:18.169Z,75.60
2017-05-04T15:08:46.540Z,75.90
2017-05-04T15:11:14.896Z,75.40
2017-05-04T15:13:43.348Z,75.40
2017-05-04T15:16:11.728Z,75.50
2017-05-04T15:18:40.935Z,75.50
2017-05-04T15:21:09.464Z,75.50
2017-05-04T15:23:37.927Z,75.70
2017-05-04T15:26:06.303Z,76.20
2017-05-04T15:28:35.517Z,76.00
2017-05-04T15:31:03.895Z,75.70
2017-05-04T15:33:32.301Z,75.90
2017-05-04T15:36:01.521Z,76.10
2017-05-04T15:38:30.675Z,76.30
2017-05-04T15:41:00.604Z,76.50
2017-05-04T15:43:34.241Z,76.20
2017-05-04T15:46:02.605Z,76.40
2017-05-04T15:48:30.983Z,76.60
2017-05-04T15:51:03.447Z,77.30
2017-05-04T15:53:32.757Z,77.80
2017-05-04T15:56:01.151Z,76.70
2017-05-04T15:58:30.481Z,77.40
2017-05-04T16:00:58.885Z,77.60
2017-05-04T16:03:38.439Z,77.80
2017-05-04T16:06:06.876Z,77.30
2017-05-04T16:08:35.930Z,77.50
2017-05-04T16:11:04.302Z,76.60
2017-05-04T16:13:32.758Z,76.50
2017-05-04T16:16:01.171Z,76.50
2017-05-04T16:18:29.798Z,76.50
2017-05-04T16:20:59.981Z,76.70
2017-05-04T16:23:29.157Z,76.50
2017-05-04T16:25:57.546Z,76.20
2017-05-04T16:28:26.122Z,76.70
2017-05-04T16:30:56.140Z,77.10
2017-05-04T16:33:25.353Z,77.30
2017-05-04T16:35:56.947Z,78.10
2017-05-04T16:38:26.249Z,78.10
2017-05-04T16:40:57.691Z,78.40
2017-05-04T16:43:27.157Z,79.00
2017-05-04T16:46:01.720Z,79.20
2017-05-04T16:48:30.103Z,79.70
2017-05-04T16:50:58.676Z,79.90
2017-05-04T16:53:27.357Z,80.40
2017-05-04T16:55:56.553Z,79.90
2017-05-04T16:58:29.268Z,79.50
2017-05-04T17:00:59.069Z,80.20
2017-05-04T17:03:36.496Z,79.90
2017-05-04T17:06:05.310Z,80.10
2017-05-04T17:08:33.929Z,80.20
2017-05-04T17:11:02.308Z,80.20
2017-05-04T17:13:30.671Z,79.80
2017-05-04T17:15:59.167Z,80.00
2017-05-04T17:18:28.517Z,79.70
2017-05-04T17:20:56.931Z,80.00
2017-05-04T17:23:26.434Z,80.20
2017-05-04T17:25:55.329Z,80.40
2017-05-04T17:28:24.589Z,80.50
2017-05-04T17:30:53.003Z,80.50
2017-05-04T17:33:21.396Z,80.70
2017-05-04T17:35:49.764Z,80.60
2017-05-04T17:38:18.439Z,80.50
2017-05-04T17:40:47.587Z,80.70
2017-05-04T17:43:15.985Z,81.40
2017-05-04T17:45:45.554Z,81.40
2017-05-04T17:48:13.972Z,81.30
2017-05-04T17:50:52.567Z,81.40
2017-05-04T17:53:21.081Z,81.40
2017-05-04T17:55:50.501Z,81.00
2017-05-04T17:58:27.581Z,81.30
2017-05-04T18:00:56.757Z,81.30
2017-05-04T18:03:25.108Z,81.40
2017-05-04T18:09:03.731Z,81.40
2017-05-04T18:11:37.190Z,81.70
2017-05-04T18:14:06.316Z,82.00
2017-05-04T18:16:51.429Z,82.00
2017-05-04T18:19:23.468Z,81.90
2017-05-04T18:21:51.937Z,82.00
2017-05-04T18:24:20.399Z,82.20
2017-05-04T18:26:50.011Z,82.40
2017-05-04T18:29:20.478Z,82.40
2017-05-04T18:31:49.066Z,82.40
2017-05-04T18:34:18.263Z,82.50
2017-05-04T18:36:47.293Z,82.80
2017-05-04T18:39:17.313Z,82.80
2017-05-04T18:41:53.792Z,83.10
2017-05-04T18:44:23.804Z,82.60
2017-05-04T18:46:52.281Z,84.00
2017-05-04T18:49:21.474Z,83.00
2017-05-04T18:51:50.775Z,83.20
2017-05-04T18:54:20.382Z,83.20
2017-05-04T18:56:53.086Z,83.10
2017-05-04T18:59:21.651Z,83.10
2017-05-04T19:01:50.897Z,83.20
2017-05-04T19:04:26.076Z,83.50
2017-05-04T19:07:11.263Z,83.30
2017-05-04T19:09:40.585Z,83.00
2017-05-04T20:00:50.568Z,85.80
2017-05-04T20:03:20.464Z,85.90
2017-05-04T20:05:50.475Z,85.80
2017-05-04T20:08:27.115Z,85.70
2017-05-04T20:10:56.641Z,85.10
2017-05-04T20:13:26.657Z,85.90
2017-05-04T20:18:35.519Z,85.70
2017-05-04T20:21:05.497Z,85.80
2017-05-04T20:23:35.966Z,85.90
2017-05-04T20:26:07.855Z,85.70
2017-05-04T20:28:41.848Z,85.70
2017-05-04T20:31:10.253Z,85.40
2017-05-04T20:33:44.050Z,85.20
2017-05-04T20:36:12.500Z,85.40
2017-05-04T20:38:40.980Z,85.20
2017-05-04T20:41:10.186Z,85.20
2017-05-04T20:46:15.703Z,85.10
2017-05-04T20:48:45.147Z,85.40
2017-05-04T20:51:13.524Z,85.30
2017-05-04T20:53:42.001Z,85.20
2017-05-04T20:56:10.544Z,85.20
2017-05-04T20:58:38.932Z,85.20
2017-05-04T21:01:08.222Z,85.10
2017-05-04T21:03:36.545Z,85.00
2017-05-04T21:06:04.941Z,84.90
2017-05-04T21:08:33.366Z,84.70
2017-05-04T21:11:01.904Z,84.80
2017-05-04T21:13:31.244Z,84.90
2017-05-04T21:15:59.730Z,85.30
2017-05-04T21:18:33.142Z,85.30
2017-05-04T21:21:02.697Z,85.20
2017-05-04T21:23:33.103Z,85.30
2017-05-04T21:26:02.313Z,85.50
2017-05-04T21:28:30.817Z,85.50
2017-05-04T21:30:59.220Z,85.70
2017-05-04T21:33:28.303Z,85.70
2017-05-04T21:35:56.877Z,85.50
2017-05-04T21:38:28.664Z,85.60
2017-05-04T21:40:59.696Z,85.50
2017-05-04T21:43:29.313Z,85.50
2017-05-04T21:46:01.699Z,85.40
2017-05-04T21:48:30.443Z,85.50
2017-05-04T21:50:58.891Z,85.40
2017-05-04T21:53:27.423Z,85.40
2017-05-04T21:55:55.967Z,85.30
2017-05-04T21:58:24.402Z,85.40
2017-05-04T22:00:54.662Z,85.40
2017-05-04T22:06:35.554Z,85.60
2017-05-04T22:09:04.749Z,85.70
2017-05-04T22:11:33.663Z,85.70
2017-05-04T22:17:33.241Z,85.80
2017-05-04T22:20:16.553Z,86.70
2017-05-04T22:54:10.451Z,85.60
2017-05-04T22:56:54.737Z,85.50
2017-05-04T22:59:23.660Z,85.50
2017-05-04T23:01:53.910Z,85.40
2017-05-04T23:04:23.356Z,85.00
2017-05-04T23:06:52.400Z,85.20
2017-05-04T23:09:35.017Z,85.40
2017-05-04T23:12:03.619Z,85.40
2017-05-04T23:17:24.606Z,85.30
2017-05-04T23:19:54.650Z,85.20
2017-05-04T23:22:28.531Z,85.10
2017-05-04T23:24:58.494Z,85.00
2017-05-04T23:27:33.733Z,85.00
2017-05-04T23:30:02.188Z,85.00
2017-05-04T23:32:31.445Z,85.10
2017-05-04T23:34:59.797Z,85.10
2017-05-04T23:37:28.197Z,85.30
2017-05-04T23:39:56.849Z,85.30
2017-05-04T23:42:25.205Z,85.20
2017-05-04T23:44:54.350Z,85.20
2017-05-04T23:47:22.762Z,85.30
2017-05-04T23:49:51.240Z,85.20
2017-05-04T23:52:20.372Z,85.30
2017-05-04T23:54:49.498Z,85.30
2017-05-04T23:57:19.876Z,85.20
2017-05-04T23:59:48.995Z,85.10
